63VA weather

Mannboro Medical Center Heliport
Mannboro, Virginia, United States

Public forecast

Using degrees Fahrenheit for public forecast. Weather courtesy of forecast.io.

METAR (pilot weather report)

Closest report is Allen C Perkinson Blackstone Army Air Field, 12.5 nm (23.1 km) SSW. Retrieved 2019/05/25 23:15 UTC (0 seconds ago):

KBKT 252315Z AUTO 17004KT 10SM CLR 29/19 A3006 RMK AO1 T02910186

TAF (pilot weather forecast)

Closest forecast is Richmond International Airport, 28.4 nm (52.6 km) ENE. Retrieved 2019/05/25 18:33 UTC (4 hours ago):

TAF KRIC 251730Z 2518/2618 16008KT P6SM FEW250 FM260000 16006KT P6SM VCSH BKN060 FM260300 19007KT P6SM BKN040 FM260700 21005KT P6SM SCT200 FM261400 27005KT P6SM SCT040